sensor_id;sensor_type;location;lat;lon;timestamp;P1;durP1;ratioP1;P2;durP2;ratioP2
63926;SDS011;50103;47.960;21.712;2022-12-07T06:01:11;54.60;;;36.70;;
63926;SDS011;50103;47.960;21.712;2022-12-07T06:03:36;57.00;;;37.00;;
63926;SDS011;50103;47.960;21.712;2022-12-07T06:06:02;57.70;;;37.90;;
63926;SDS011;50103;47.960;21.712;2022-12-07T06:08:28;56.70;;;37.40;;
63926;SDS011;50103;47.960;21.712;2022-12-07T06:10:54;58.30;;;37.90;;
63926;SDS011;50103;47.960;21.712;2022-12-07T06:13:39;58.60;;;38.70;;
63926;SDS011;50103;47.960;21.712;2022-12-07T06:16:05;57.70;;;38.20;;
63926;SDS011;50103;47.960;21.712;2022-12-07T06:18:31;57.40;;;37.80;;
63926;SDS011;50103;47.960;21.712;2022-12-07T06:20:57;60.90;;;40.40;;
63926;SDS011;50103;47.960;21.712;2022-12-07T06:23:22;58.70;;;38.10;;
63926;SDS011;50103;47.960;21.712;2022-12-07T06:25:48;56.80;;;37.60;;
63926;SDS011;50103;47.960;21.712;2022-12-07T06:28:13;60.50;;;39.20;;
63926;SDS011;50103;47.960;21.712;2022-12-07T06:30:39;57.30;;;38.70;;
63926;SDS011;50103;47.960;21.712;2022-12-07T06:33:04;57.00;;;37.20;;
63926;SDS011;50103;47.960;21.712;2022-12-07T06:35:32;56.50;;;38.30;;
63926;SDS011;50103;47.960;21.712;2022-12-07T06:37:58;53.80;;;36.20;;
63926;SDS011;50103;47.960;21.712;2022-12-07T06:40:23;55.90;;;36.70;;
63926;SDS011;50103;47.960;21.712;2022-12-07T06:42:49;55.00;;;37.00;;
63926;SDS011;50103;47.960;21.712;2022-12-07T06:45:14;55.00;;;36.80;;
63926;SDS011;50103;47.960;21.712;2022-12-07T06:47:40;54.60;;;36.10;;
63926;SDS011;50103;47.960;21.712;2022-12-07T06:50:05;55.40;;;36.70;;
63926;SDS011;50103;47.960;21.712;2022-12-07T06:52:33;57.00;;;39.20;;
63926;SDS011;50103;47.960;21.712;2022-12-07T06:54:58;57.40;;;38.00;;
63926;SDS011;50103;47.960;21.712;2022-12-07T06:57:27;60.60;;;42.00;;
63926;SDS011;50103;47.960;21.712;2022-12-07T07:00:14;59.10;;;38.50;;
63926;SDS011;50103;47.960;21.712;2022-12-07T07:02:50;57.70;;;38.80;;
63926;SDS011;50103;47.960;21.712;2022-12-07T07:05:20;54.40;;;37.60;;
63926;SDS011;50103;47.960;21.712;2022-12-07T07:07:47;56.50;;;37.70;;
63926;SDS011;50103;47.960;21.712;2022-12-07T07:10:14;58.40;;;37.40;;
63926;SDS011;50103;47.960;21.712;2022-12-07T07:12:40;57.80;;;37.00;;
63926;SDS011;50103;47.960;21.712;2022-12-07T07:15:05;56.60;;;38.30;;
63926;SDS011;50103;47.960;21.712;2022-12-07T07:17:31;56.50;;;36.80;;
63926;SDS011;50103;47.960;21.712;2022-12-07T07:19:57;55.90;;;36.50;;
63926;SDS011;50103;47.960;21.712;2022-12-07T07:22:22;58.70;;;36.70;;
63926;SDS011;50103;47.960;21.712;2022-12-07T07:24:48;57.30;;;37.60;;
63926;SDS011;50103;47.960;21.712;2022-12-07T07:27:15;57.60;;;38.50;;
63926;SDS011;50103;47.960;21.712;2022-12-07T07:29:41;57.00;;;36.20;;
63926;SDS011;50103;47.960;21.712;2022-12-07T07:32:06;55.80;;;35.60;;
63926;SDS011;50103;47.960;21.712;2022-12-07T07:34:33;59.70;;;36.70;;
63926;SDS011;50103;47.960;21.712;2022-12-07T07:36:59;57.50;;;36.80;;
63926;SDS011;50103;47.960;21.712;2022-12-07T07:39:24;57.70;;;38.40;;
63926;SDS011;50103;47.960;21.712;2022-12-07T07:41:50;59.60;;;37.60;;
63926;SDS011;50103;47.960;21.712;2022-12-07T07:44:15;56.40;;;36.40;;
63926;SDS011;50103;47.960;21.712;2022-12-07T07:46:40;57.20;;;37.70;;
63926;SDS011;50103;47.960;21.712;2022-12-07T07:49:06;58.10;;;37.10;;
63926;SDS011;50103;47.960;21.712;2022-12-07T07:51:31;55.80;;;36.40;;
63926;SDS011;50103;47.960;21.712;2022-12-07T07:53:57;59.10;;;38.20;;
63926;SDS011;50103;47.960;21.712;2022-12-07T07:56:22;55.60;;;34.60;;
63926;SDS011;50103;47.960;21.712;2022-12-07T07:58:51;54.30;;;35.20;;
63926;SDS011;50103;47.960;21.712;2022-12-07T08:01:17;54.50;;;34.80;;
63926;SDS011;50103;47.960;21.712;2022-12-07T08:03:44;54.50;;;35.20;;
63926;SDS011;50103;47.960;21.712;2022-12-07T08:06:12;58.70;;;38.20;;
63926;SDS011;50103;47.960;21.712;2022-12-07T08:08:38;58.00;;;37.50;;
63926;SDS011;50103;47.960;21.712;2022-12-07T08:11:07;58.50;;;37.20;;
63926;SDS011;50103;47.960;21.712;2022-12-07T08:13:34;55.70;;;36.20;;
63926;SDS011;50103;47.960;21.712;2022-12-07T08:16:07;55.90;;;35.20;;
63926;SDS011;50103;47.960;21.712;2022-12-07T08:18:35;57.00;;;35.90;;
63926;SDS011;50103;47.960;21.712;2022-12-07T08:21:02;53.20;;;34.60;;
63926;SDS011;50103;47.960;21.712;2022-12-07T08:23:28;55.10;;;35.30;;
63926;SDS011;50103;47.960;21.712;2022-12-07T08:25:59;59.60;;;37.00;;
63926;SDS011;50103;47.960;21.712;2022-12-07T08:28:33;59.50;;;36.80;;
63926;SDS011;50103;47.960;21.712;2022-12-07T08:31:03;58.80;;;37.70;;
63926;SDS011;50103;47.960;21.712;2022-12-07T08:33:34;60.40;;;39.10;;
63926;SDS011;50103;47.960;21.712;2022-12-07T08:36:00;62.40;;;39.90;;
63926;SDS011;50103;47.960;21.712;2022-12-07T08:38:27;61.80;;;39.00;;
63926;SDS011;50103;47.960;21.712;2022-12-07T08:40:56;60.80;;;39.00;;
63926;SDS011;50103;47.960;21.712;2022-12-07T08:43:22;61.70;;;39.90;;
63926;SDS011;50103;47.960;21.712;2022-12-07T08:45:50;60.80;;;38.70;;
63926;SDS011;50103;47.960;21.712;2022-12-07T08:48:28;58.20;;;38.40;;
63926;SDS011;50103;47.960;21.712;2022-12-07T08:50:54;55.10;;;35.30;;
63926;SDS011;50103;47.960;21.712;2022-12-07T08:53:20;57.90;;;36.60;;
63926;SDS011;50103;47.960;21.712;2022-12-07T08:55:47;53.90;;;35.80;;
63926;SDS011;50103;47.960;21.712;2022-12-07T08:58:13;57.90;;;36.10;;
63926;SDS011;50103;47.960;21.712;2022-12-07T09:00:39;54.30;;;34.30;;
63926;SDS011;50103;47.960;21.712;2022-12-07T09:03:04;52.00;;;34.30;;
63926;SDS011;50103;47.960;21.712;2022-12-07T09:05:29;50.80;;;34.30;;
63926;SDS011;50103;47.960;21.712;2022-12-07T09:07:57;53.50;;;33.90;;
63926;SDS011;50103;47.960;21.712;2022-12-07T09:10:26;53.50;;;34.50;;
63926;SDS011;50103;47.960;21.712;2022-12-07T09:12:52;51.50;;;34.20;;
63926;SDS011;50103;47.960;21.712;2022-12-07T09:15:20;52.70;;;34.50;;
63926;SDS011;50103;47.960;21.712;2022-12-07T09:17:45;53.70;;;34.30;;
63926;SDS011;50103;47.960;21.712;2022-12-07T09:20:11;51.60;;;33.90;;
63926;SDS011;50103;47.960;21.712;2022-12-07T09:22:37;50.90;;;33.10;;
63926;SDS011;50103;47.960;21.712;2022-12-07T09:25:03;51.90;;;31.50;;
63926;SDS011;50103;47.960;21.712;2022-12-07T09:27:29;50.30;;;31.60;;
63926;SDS011;50103;47.960;21.712;2022-12-07T09:29:56;50.10;;;33.20;;
63926;SDS011;50103;47.960;21.712;2022-12-07T09:32:21;50.50;;;32.00;;
63926;SDS011;50103;47.960;21.712;2022-12-07T09:34:47;55.20;;;33.20;;
63926;SDS011;50103;47.960;21.712;2022-12-07T09:37:12;49.80;;;31.40;;
63926;SDS011;50103;47.960;21.712;2022-12-07T09:39:38;47.70;;;30.20;;
63926;SDS011;50103;47.960;21.712;2022-12-07T09:42:04;47.30;;;30.60;;
63926;SDS011;50103;47.960;21.712;2022-12-07T09:44:32;46.90;;;31.00;;
63926;SDS011;50103;47.960;21.712;2022-12-07T09:46:58;45.90;;;29.10;;
63926;SDS011;50103;47.960;21.712;2022-12-07T09:49:25;45.80;;;30.40;;
63926;SDS011;50103;47.960;21.712;2022-12-07T09:52:03;46.30;;;29.30;;
63926;SDS011;50103;47.960;21.712;2022-12-07T09:54:50;46.00;;;28.90;;
63926;SDS011;50103;47.960;21.712;2022-12-07T09:57:17;46.40;;;29.50;;
63926;SDS011;50103;47.960;21.712;2022-12-07T09:59:46;43.70;;;28.50;;
63926;SDS011;50103;47.960;21.712;2022-12-07T10:02:23;45.80;;;29.80;;
63926;SDS011;50103;47.960;21.712;2022-12-07T10:05:06;47.00;;;29.10;;
63926;SDS011;50103;47.960;21.712;2022-12-07T10:07:34;46.90;;;28.20;;
63926;SDS011;50103;47.960;21.712;2022-12-07T10:10:02;42.90;;;28.40;;
63926;SDS011;50103;47.960;21.712;2022-12-07T10:12:42;44.60;;;28.00;;
63926;SDS011;50103;47.960;21.712;2022-12-07T10:18:39;41.80;;;25.80;;
63926;SDS011;50103;47.960;21.712;2022-12-07T10:21:11;42.10;;;27.10;;
63926;SDS011;50103;47.960;21.712;2022-12-07T10:26:37;44.90;;;26.10;;
63926;SDS011;50103;47.960;21.712;2022-12-07T10:31:38;42.60;;;27.40;;
63926;SDS011;50103;47.960;21.712;2022-12-07T10:34:14;44.10;;;28.20;;
63926;SDS011;50103;47.960;21.712;2022-12-07T10:36:47;43.90;;;27.80;;
63926;SDS011;50103;47.960;21.712;2022-12-07T10:39:13;42.70;;;27.20;;
63926;SDS011;50103;47.960;21.712;2022-12-07T10:41:57;46.50;;;29.80;;
63926;SDS011;50103;47.960;21.712;2022-12-07T10:44:25;45.30;;;29.80;;
63926;SDS011;50103;47.960;21.712;2022-12-07T10:58:23;43.90;;;27.40;;
63926;SDS011;50103;47.960;21.712;2022-12-07T11:01:13;43.30;;;28.10;;
63926;SDS011;50103;47.960;21.712;2022-12-07T11:17:35;43.60;;;28.80;;
63926;SDS011;50103;47.960;21.712;2022-12-07T11:20:39;45.40;;;30.40;;
63926;SDS011;50103;47.960;21.712;2022-12-07T11:23:16;43.50;;;28.50;;
63926;SDS011;50103;47.960;21.712;2022-12-07T11:30:51;43.70;;;28.30;;
63926;SDS011;50103;47.960;21.712;2022-12-07T11:33:33;42.00;;;27.10;;
63926;SDS011;50103;47.960;21.712;2022-12-07T11:39:48;41.00;;;26.30;;
63926;SDS011;50103;47.960;21.712;2022-12-07T11:42:07;43.50;;;27.00;;
63926;SDS011;50103;47.960;21.712;2022-12-07T11:45:10;41.40;;;27.00;;
63926;SDS011;50103;47.960;21.712;2022-12-07T11:47:48;43.30;;;27.20;;
63926;SDS011;50103;47.960;21.712;2022-12-07T11:55:54;43.60;;;27.10;;
63926;SDS011;50103;47.960;21.712;2022-12-07T12:01:01;39.90;;;26.20;;
63926;SDS011;50103;47.960;21.712;2022-12-07T12:06:40;43.30;;;27.60;;
63926;SDS011;50103;47.960;21.712;2022-12-07T12:09:15;42.70;;;27.30;;
63926;SDS011;50103;47.960;21.712;2022-12-07T12:20:43;40.90;;;26.20;;
63926;SDS011;50103;47.960;21.712;2022-12-07T12:26:07;43.40;;;27.10;;
63926;SDS011;50103;47.960;21.712;2022-12-07T12:29:06;44.10;;;28.60;;
63926;SDS011;50103;47.960;21.712;2022-12-07T12:31:47;42.20;;;27.70;;
63926;SDS011;50103;47.960;21.712;2022-12-07T12:42:56;46.20;;;29.20;;
63926;SDS011;50103;47.960;21.712;2022-12-07T12:45:26;43.80;;;29.70;;
63926;SDS011;50103;47.960;21.712;2022-12-07T12:48:16;44.10;;;28.20;;
63926;SDS011;50103;47.960;21.712;2022-12-07T12:54:04;41.80;;;27.10;;
63926;SDS011;50103;47.960;21.712;2022-12-07T12:56:41;41.10;;;26.40;;
63926;SDS011;50103;47.960;21.712;2022-12-07T12:59:22;41.60;;;25.10;;
63926;SDS011;50103;47.960;21.712;2022-12-07T13:05:31;39.20;;;25.70;;
63926;SDS011;50103;47.960;21.712;2022-12-07T13:10:53;40.60;;;25.30;;
63926;SDS011;50103;47.960;21.712;2022-12-07T13:13:48;40.10;;;25.60;;
63926;SDS011;50103;47.960;21.712;2022-12-07T13:18:42;40.50;;;25.00;;
63926;SDS011;50103;47.960;21.712;2022-12-07T13:31:50;38.20;;;22.60;;
63926;SDS011;50103;47.960;21.712;2022-12-07T13:34:36;39.60;;;23.80;;
63926;SDS011;50103;47.960;21.712;2022-12-07T13:37:14;36.70;;;22.80;;
63926;SDS011;50103;47.960;21.712;2022-12-07T13:39:51;36.40;;;21.40;;
63926;SDS011;50103;47.960;21.712;2022-12-07T13:42:34;36.90;;;21.90;;
63926;SDS011;50103;47.960;21.712;2022-12-07T13:45:25;36.30;;;20.60;;
63926;SDS011;50103;47.960;21.712;2022-12-07T13:50:56;37.90;;;21.50;;
63926;SDS011;50103;47.960;21.712;2022-12-07T13:53:23;36.80;;;21.30;;
63926;SDS011;50103;47.960;21.712;2022-12-07T13:55:49;35.70;;;21.30;;
63926;SDS011;50103;47.960;21.712;2022-12-07T13:58:16;37.40;;;21.90;;
63926;SDS011;50103;47.960;21.712;2022-12-07T14:00:46;35.40;;;20.50;;
63926;SDS011;50103;47.960;21.712;2022-12-07T14:10:40;38.60;;;24.00;;
63926;SDS011;50103;47.960;21.712;2022-12-07T14:15:54;39.30;;;25.00;;
63926;SDS011;50103;47.960;21.712;2022-12-07T14:23:36;38.60;;;25.00;;
63926;SDS011;50103;47.960;21.712;2022-12-07T14:26:13;40.60;;;25.70;;
63926;SDS011;50103;47.960;21.712;2022-12-07T14:28:43;40.10;;;25.70;;
63926;SDS011;50103;47.960;21.712;2022-12-07T14:31:16;39.10;;;25.50;;
63926;SDS011;50103;47.960;21.712;2022-12-07T14:33:43;41.80;;;27.80;;
63926;SDS011;50103;47.960;21.712;2022-12-07T14:36:09;40.90;;;26.70;;
63926;SDS011;50103;47.960;21.712;2022-12-07T14:38:39;43.30;;;27.30;;
63926;SDS011;50103;47.960;21.712;2022-12-07T14:41:06;40.60;;;26.60;;
63926;SDS011;50103;47.960;21.712;2022-12-07T14:43:59;41.90;;;26.40;;
63926;SDS011;50103;47.960;21.712;2022-12-07T14:46:25;41.10;;;26.00;;
63926;SDS011;50103;47.960;21.712;2022-12-07T14:48:52;42.20;;;26.90;;
63926;SDS011;50103;47.960;21.712;2022-12-07T14:51:17;43.10;;;28.10;;
63926;SDS011;50103;47.960;21.712;2022-12-07T14:53:44;44.60;;;27.60;;
63926;SDS011;50103;47.960;21.712;2022-12-07T14:56:15;41.20;;;26.80;;
63926;SDS011;50103;47.960;21.712;2022-12-07T14:58:41;46.60;;;29.40;;
63926;SDS011;50103;47.960;21.712;2022-12-07T15:01:06;53.10;;;34.30;;
63926;SDS011;50103;47.960;21.712;2022-12-07T15:03:32;43.20;;;27.50;;
63926;SDS011;50103;47.960;21.712;2022-12-07T15:05:59;43.90;;;27.10;;
63926;SDS011;50103;47.960;21.712;2022-12-07T15:08:25;42.80;;;27.10;;
63926;SDS011;50103;47.960;21.712;2022-12-07T15:10:51;45.70;;;29.70;;
63926;SDS011;50103;47.960;21.712;2022-12-07T15:13:17;44.50;;;28.70;;
63926;SDS011;50103;47.960;21.712;2022-12-07T15:16:02;45.10;;;29.20;;
63926;SDS011;50103;47.960;21.712;2022-12-07T15:18:27;45.60;;;29.90;;
63926;SDS011;50103;47.960;21.712;2022-12-07T15:20:53;44.90;;;28.60;;
63926;SDS011;50103;47.960;21.712;2022-12-07T15:23:18;45.40;;;28.80;;
63926;SDS011;50103;47.960;21.712;2022-12-07T15:25:44;42.80;;;27.10;;
63926;SDS011;50103;47.960;21.712;2022-12-07T15:28:12;45.10;;;27.90;;
63926;SDS011;50103;47.960;21.712;2022-12-07T15:30:42;42.30;;;26.60;;
63926;SDS011;50103;47.960;21.712;2022-12-07T15:33:09;43.40;;;28.20;;
63926;SDS011;50103;47.960;21.712;2022-12-07T15:35:41;45.20;;;28.30;;
63926;SDS011;50103;47.960;21.712;2022-12-07T15:38:09;47.00;;;29.40;;
63926;SDS011;50103;47.960;21.712;2022-12-07T15:40:35;47.80;;;30.10;;
63926;SDS011;50103;47.960;21.712;2022-12-07T15:43:01;47.20;;;31.40;;
63926;SDS011;50103;47.960;21.712;2022-12-07T15:45:26;45.40;;;30.20;;
63926;SDS011;50103;47.960;21.712;2022-12-07T15:47:52;48.20;;;31.00;;
63926;SDS011;50103;47.960;21.712;2022-12-07T15:50:19;47.70;;;29.60;;
63926;SDS011;50103;47.960;21.712;2022-12-07T15:52:45;44.90;;;28.70;;
63926;SDS011;50103;47.960;21.712;2022-12-07T15:55:10;48.40;;;30.50;;
63926;SDS011;50103;47.960;21.712;2022-12-07T15:57:36;47.10;;;28.80;;
63926;SDS011;50103;47.960;21.712;2022-12-07T16:00:04;44.60;;;28.70;;
63926;SDS011;50103;47.960;21.712;2022-12-07T16:02:30;46.20;;;28.70;;
63926;SDS011;50103;47.960;21.712;2022-12-07T16:04:56;45.10;;;28.80;;
63926;SDS011;50103;47.960;21.712;2022-12-07T16:07:21;47.90;;;31.70;;
63926;SDS011;50103;47.960;21.712;2022-12-07T16:09:47;52.70;;;37.70;;
63926;SDS011;50103;47.960;21.712;2022-12-07T16:12:14;50.00;;;31.10;;
63926;SDS011;50103;47.960;21.712;2022-12-07T16:14:40;47.80;;;30.40;;
63926;SDS011;50103;47.960;21.712;2022-12-07T16:17:07;57.40;;;41.80;;
63926;SDS011;50103;47.960;21.712;2022-12-07T16:19:34;47.60;;;30.20;;
63926;SDS011;50103;47.960;21.712;2022-12-07T16:22:00;51.00;;;31.20;;
63926;SDS011;50103;47.960;21.712;2022-12-07T16:24:26;45.80;;;28.20;;
63926;SDS011;50103;47.960;21.712;2022-12-07T16:26:52;50.70;;;30.40;;
63926;SDS011;50103;47.960;21.712;2022-12-07T16:29:18;49.30;;;30.20;;
63926;SDS011;50103;47.960;21.712;2022-12-07T16:31:45;48.40;;;29.80;;
63926;SDS011;50103;47.960;21.712;2022-12-07T16:34:12;48.30;;;30.90;;
63926;SDS011;50103;47.960;21.712;2022-12-07T16:36:37;51.60;;;30.20;;
63926;SDS011;50103;47.960;21.712;2022-12-07T16:39:03;72.40;;;49.50;;
63926;SDS011;50103;47.960;21.712;2022-12-07T16:41:30;54.20;;;35.40;;
63926;SDS011;50103;47.960;21.712;2022-12-07T16:43:55;51.00;;;33.10;;
63926;SDS011;50103;47.960;21.712;2022-12-07T16:46:21;50.10;;;31.10;;
63926;SDS011;50103;47.960;21.712;2022-12-07T16:48:46;50.00;;;30.60;;
63926;SDS011;50103;47.960;21.712;2022-12-07T16:51:12;71.50;;;45.30;;
63926;SDS011;50103;47.960;21.712;2022-12-07T16:53:40;77.20;;;56.20;;
63926;SDS011;50103;47.960;21.712;2022-12-07T16:56:14;56.20;;;35.70;;
63926;SDS011;50103;47.960;21.712;2022-12-07T16:58:41;53.50;;;34.40;;
63926;SDS011;50103;47.960;21.712;2022-12-07T17:03:37;68.40;;;49.70;;
63926;SDS011;50103;47.960;21.712;2022-12-07T17:06:02;54.80;;;36.70;;
63926;SDS011;50103;47.960;21.712;2022-12-07T17:08:28;54.10;;;36.10;;
63926;SDS011;50103;47.960;21.712;2022-12-07T17:10:54;54.30;;;35.10;;
63926;SDS011;50103;47.960;21.712;2022-12-07T17:13:19;52.70;;;35.10;;
63926;SDS011;50103;47.960;21.712;2022-12-07T17:16:04;53.20;;;35.50;;
63926;SDS011;50103;47.960;21.712;2022-12-07T17:18:32;51.20;;;32.90;;
63926;SDS011;50103;47.960;21.712;2022-12-07T17:21:03;50.10;;;31.30;;
63926;SDS011;50103;47.960;21.712;2022-12-07T17:23:31;53.00;;;33.90;;
63926;SDS011;50103;47.960;21.712;2022-12-07T17:26:07;52.90;;;33.60;;
63926;SDS011;50103;47.960;21.712;2022-12-07T17:28:35;49.90;;;33.00;;
63926;SDS011;50103;47.960;21.712;2022-12-07T17:31:04;56.10;;;35.90;;
63926;SDS011;50103;47.960;21.712;2022-12-07T17:33:31;54.20;;;35.30;;
63926;SDS011;50103;47.960;21.712;2022-12-07T17:35:57;54.40;;;35.10;;
63926;SDS011;50103;47.960;21.712;2022-12-07T17:38:22;56.20;;;34.20;;
63926;SDS011;50103;47.960;21.712;2022-12-07T17:40:48;54.00;;;36.90;;
63926;SDS011;50103;47.960;21.712;2022-12-07T17:43:13;53.20;;;35.40;;
63926;SDS011;50103;47.960;21.712;2022-12-07T17:45:39;53.30;;;35.50;;
63926;SDS011;50103;47.960;21.712;2022-12-07T17:48:04;54.90;;;36.10;;
63926;SDS011;50103;47.960;21.712;2022-12-07T17:50:30;57.40;;;38.90;;
63926;SDS011;50103;47.960;21.712;2022-12-07T17:53:14;55.50;;;36.30;;
63926;SDS011;50103;47.960;21.712;2022-12-07T17:55:39;57.60;;;39.70;;
63926;SDS011;50103;47.960;21.712;2022-12-07T17:58:05;56.90;;;37.40;;
63926;SDS011;50103;47.960;21.712;2022-12-07T18:00:31;55.30;;;36.90;;
63926;SDS011;50103;47.960;21.712;2022-12-07T18:03:03;59.00;;;40.20;;
63926;SDS011;50103;47.960;21.712;2022-12-07T18:05:30;58.70;;;37.70;;
63926;SDS011;50103;47.960;21.712;2022-12-07T18:07:57;55.20;;;36.20;;
63926;SDS011;50103;47.960;21.712;2022-12-07T18:10:23;55.60;;;35.70;;
63926;SDS011;50103;47.960;21.712;2022-12-07T18:12:48;57.00;;;36.90;;
63926;SDS011;50103;47.960;21.712;2022-12-07T18:15:13;56.80;;;37.40;;
63926;SDS011;50103;47.960;21.712;2022-12-07T18:17:39;58.10;;;36.80;;
63926;SDS011;50103;47.960;21.712;2022-12-07T18:20:06;55.00;;;36.80;;
63926;SDS011;50103;47.960;21.712;2022-12-07T18:22:32;59.30;;;38.40;;
63926;SDS011;50103;47.960;21.712;2022-12-07T18:24:57;57.00;;;38.70;;
63926;SDS011;50103;47.960;21.712;2022-12-07T18:27:23;60.80;;;39.80;;
63926;SDS011;50103;47.960;21.712;2022-12-07T18:29:48;60.30;;;38.30;;
63926;SDS011;50103;47.960;21.712;2022-12-07T18:32:14;56.60;;;36.90;;
63926;SDS011;50103;47.960;21.712;2022-12-07T18:34:39;58.00;;;37.70;;
63926;SDS011;50103;47.960;21.712;2022-12-07T18:37:05;59.20;;;38.00;;
63926;SDS011;50103;47.960;21.712;2022-12-07T18:39:31;58.60;;;37.60;;
63926;SDS011;50103;47.960;21.712;2022-12-07T18:41:56;56.60;;;36.90;;
63926;SDS011;50103;47.960;21.712;2022-12-07T18:44:22;57.50;;;38.10;;
63926;SDS011;50103;47.960;21.712;2022-12-07T18:46:47;57.00;;;37.80;;
63926;SDS011;50103;47.960;21.712;2022-12-07T18:49:13;56.10;;;36.60;;
63926;SDS011;50103;47.960;21.712;2022-12-07T18:51:39;61.90;;;39.70;;
63926;SDS011;50103;47.960;21.712;2022-12-07T18:54:05;58.00;;;36.20;;
63926;SDS011;50103;47.960;21.712;2022-12-07T18:56:31;59.50;;;37.70;;
63926;SDS011;50103;47.960;21.712;2022-12-07T18:58:58;58.10;;;38.20;;
63926;SDS011;50103;47.960;21.712;2022-12-07T19:01:46;59.30;;;39.40;;
63926;SDS011;50103;47.960;21.712;2022-12-07T19:04:14;59.30;;;38.00;;
63926;SDS011;50103;47.960;21.712;2022-12-07T19:06:40;59.10;;;39.90;;
63926;SDS011;50103;47.960;21.712;2022-12-07T19:09:07;56.00;;;36.60;;
63926;SDS011;50103;47.960;21.712;2022-12-07T19:11:33;57.60;;;38.10;;
63926;SDS011;50103;47.960;21.712;2022-12-07T19:14:24;57.00;;;36.00;;
63926;SDS011;50103;47.960;21.712;2022-12-07T19:16:54;57.70;;;36.80;;
63926;SDS011;50103;47.960;21.712;2022-12-07T19:19:22;62.30;;;42.20;;
63926;SDS011;50103;47.960;21.712;2022-12-07T19:21:49;58.70;;;39.80;;
63926;SDS011;50103;47.960;21.712;2022-12-07T19:24:15;55.90;;;36.80;;
63926;SDS011;50103;47.960;21.712;2022-12-07T19:26:41;58.70;;;37.90;;
63926;SDS011;50103;47.960;21.712;2022-12-07T19:29:07;57.70;;;38.90;;
63926;SDS011;50103;47.960;21.712;2022-12-07T19:31:33;61.10;;;38.50;;
63926;SDS011;50103;47.960;21.712;2022-12-07T19:34:00;60.40;;;39.80;;
63926;SDS011;50103;47.960;21.712;2022-12-07T19:36:25;59.60;;;38.00;;
63926;SDS011;50103;47.960;21.712;2022-12-07T19:38:51;59.90;;;39.80;;
63926;SDS011;50103;47.960;21.712;2022-12-07T19:41:17;63.40;;;39.50;;
63926;SDS011;50103;47.960;21.712;2022-12-07T19:43:58;59.10;;;38.60;;
63926;SDS011;50103;47.960;21.712;2022-12-07T19:46:25;60.40;;;39.30;;
63926;SDS011;50103;47.960;21.712;2022-12-07T19:48:52;59.70;;;39.90;;
63926;SDS011;50103;47.960;21.712;2022-12-07T19:51:18;56.40;;;36.00;;
63926;SDS011;50103;47.960;21.712;2022-12-07T19:53:43;58.20;;;36.00;;
63926;SDS011;50103;47.960;21.712;2022-12-07T19:56:13;54.00;;;34.70;;
63926;SDS011;50103;47.960;21.712;2022-12-07T19:58:39;55.90;;;36.00;;
